Time;durP1;ratioP1;P1;durP2;ratioP2;P2;SDS_P1;SDS_P2;PMS_P1;PMS_P2;Temp;Humidity;BMP_temperature;BMP_pressure;BME280_temperature;BME280_humidity;BME280_pressure;Samples;Min_cycle;Max_cycle;Signal;HPM_P1;HPM_P2
2022/10/05 00:00:08;;;;;;;14.35;9.40;;;;;;;;;;4990145;28;20026;-69
2022/10/05 00:02:34;;;;;;;14.50;9.40;;;;;;;;;;4989329;28;20061;-70
2022/10/05 00:04:59;;;;;;;12.02;8.68;;;;;;;;;;4993746;28;20073;-69
2022/10/05 00:07:24;;;;;;;13.07;9.53;;;;;;;;;;4985581;28;20026;-69
2022/10/05 00:09:53;;;;;;;13.33;9.80;;;;;;;;;;4986229;28;20038;-69
2022/10/05 00:12:19;;;;;;;13.98;9.75;;;;;;;;;;4988902;28;20286;-70
2022/10/05 00:14:45;;;;;;;13.02;9.23;;;;;;;;;;4989518;28;20049;-69
2022/10/05 00:17:18;;;;;;;14.80;10.02;;;;;;;;;;4986036;28;20037;-69
2022/10/05 00:19:45;;;;;;;20.95;9.75;;;;;;;;;;5007195;28;20030;-69
2022/10/05 00:22:13;;;;;;;20.75;9.35;;;;;;;;;;4989191;28;20030;-70
2022/10/05 00:24:38;;;;;;;16.98;9.63;;;;;;;;;;4988521;28;20034;-70
2022/10/05 00:27:13;;;;;;;18.57;8.90;;;;;;;;;;4988814;28;20105;-69
2022/10/05 00:29:38;;;;;;;17.58;9.00;;;;;;;;;;4988689;28;20290;-68
2022/10/05 00:32:03;;;;;;;20.07;8.73;;;;;;;;;;5004454;28;20026;-69
2022/10/05 00:34:32;;;;;;;17.23;8.60;;;;;;;;;;4990429;28;20034;-69
2022/10/05 00:36:57;;;;;;;21.42;9.85;;;;;;;;;;4990227;28;20379;-69
2022/10/05 00:39:22;;;;;;;17.97;8.83;;;;;;;;;;4989045;28;20105;-69
2022/10/05 00:41:56;;;;;;;14.80;9.37;;;;;;;;;;4987830;28;20470;-69
2022/10/05 00:44:29;;;;;;;14.93;9.15;;;;;;;;;;4988973;28;20283;-69
2022/10/05 00:47:07;;;;;;;23.55;9.52;;;;;;;;;;4986793;28;20491;-69
2022/10/05 00:49:38;;;;;;;22.67;9.98;;;;;;;;;;4989936;28;20034;-69
2022/10/05 00:52:03;;;;;;;19.92;9.65;;;;;;;;;;4989177;28;20033;-69
2022/10/05 00:54:33;;;;;;;19.60;9.97;;;;;;;;;;4987991;28;20038;-69
2022/10/05 00:56:58;;;;;;;;;;;;;;;;;;4987479;28;20431;-69
2022/10/05 00:59:23;;;;;;;42.65;10.27;;;;;;;;;;4988420;28;20283;-69
2022/10/05 01:02:00;;;;;;;38.97;9.80;;;;;;;;;;4986951;28;20022;-68
2022/10/05 01:04:39;;;;;;;21.77;9.52;;;;;;;;;;4991399;28;20030;-69
2022/10/05 01:07:11;;;;;;;18.02;8.68;;;;;;;;;;4988430;28;20427;-69
2022/10/05 01:09:48;;;;;;;27.33;8.65;;;;;;;;;;4990757;28;20034;-69
2022/10/05 01:12:19;;;;;;;24.00;8.85;;;;;;;;;;4988888;28;20056;-69
2022/10/05 01:14:50;;;;;;;43.63;8.52;;;;;;;;;;4990078;28;20050;-69
2022/10/05 01:17:21;;;;;;;32.20;9.02;;;;;;;;;;4985531;28;20038;-69
2022/10/05 01:19:49;;;;;;;28.75;8.57;;;;;;;;;;4987954;28;20034;-69
2022/10/05 01:22:15;;;;;;;24.20;9.00;;;;;;;;;;4986670;28;20026;-68
2022/10/05 01:24:46;;;;;;;26.73;8.03;;;;;;;;;;4993733;28;20077;-70
2022/10/05 01:27:17;;;;;;;49.47;7.88;;;;;;;;;;4993330;28;20046;-70
2022/10/05 01:29:58;;;;;;;19.38;7.63;;;;;;;;;;4993336;28;20034;-70
2022/10/05 01:32:41;;;;;;;42.40;7.57;;;;;;;;;;4990630;28;20058;-70
2022/10/05 01:35:13;;;;;;;23.88;8.07;;;;;;;;;;4990903;28;20030;-70
2022/10/05 01:37:38;;;;;;;46.88;8.75;;;;;;;;;;5008159;28;20030;-70
2022/10/05 01:40:03;;;;;;;19.87;7.60;;;;;;;;;;4993076;28;20393;-70
2022/10/05 01:42:31;;;;;;;21.33;9.20;;;;;;;;;;4993164;28;20085;-69
2022/10/05 01:45:08;;;;;;;29.90;9.55;;;;;;;;;;4993996;28;20030;-69
2022/10/05 01:47:45;;;;;;;22.55;9.05;;;;;;;;;;4992894;28;20113;-70
2022/10/05 01:50:25;;;;;;;18.05;9.13;;;;;;;;;;5008311;28;20026;-69
2022/10/05 01:53:14;;;;;;;24.15;8.88;;;;;;;;;;4991136;28;20026;-69
2022/10/05 01:55:39;;;;;;;17.57;9.40;;;;;;;;;;4954903;28;20551;-69
2022/10/05 01:58:07;;;;;;;18.53;8.33;;;;;;;;;;4970479;28;20288;-67
2022/10/05 02:00:39;;;;;;;16.48;8.15;;;;;;;;;;4955905;28;20383;-69
2022/10/05 02:03:04;;;;;;;18.58;7.72;;;;;;;;;;4970912;28;20511;-69
2022/10/05 02:05:52;;;;;;;14.27;8.07;;;;;;;;;;4971519;28;20117;-70
2022/10/05 02:08:32;;;;;;;15.95;7.43;;;;;;;;;;4957240;28;20801;-67
2022/10/05 02:11:08;;;;;;;13.18;7.00;;;;;;;;;;4970292;28;20078;-67
2022/10/05 02:13:51;;;;;;;14.88;7.47;;;;;;;;;;4955004;28;20051;-69
2022/10/05 02:16:32;;;;;;;12.15;6.97;;;;;;;;;;4971799;28;20031;-70
2022/10/05 02:19:01;;;;;;;14.85;7.00;;;;;;;;;;4971165;28;20050;-68
2022/10/05 02:21:27;;;;;;;10.05;6.05;;;;;;;;;;4955010;28;20503;-68
2022/10/05 02:23:55;;;;;;;23.85;7.05;;;;;;;;;;4955174;28;20473;-67
2022/10/05 02:26:21;;;;;;;21.40;6.60;;;;;;;;;;4971161;28;20575;-66
2022/10/05 02:28:54;;;;;;;26.75;7.00;;;;;;;;;;4970011;28;20058;-68
2022/10/05 02:31:39;;;;;;;37.10;7.22;;;;;;;;;;4970333;28;20143;-69
2022/10/05 02:34:23;;;;;;;24.60;6.38;;;;;;;;;;4988826;28;20084;-68
2022/10/05 02:36:54;;;;;;;27.05;7.00;;;;;;;;;;4992329;28;20037;-68
2022/10/05 02:39:31;;;;;;;26.60;6.63;;;;;;;;;;4990792;28;20038;-69
2022/10/05 02:42:05;;;;;;;36.08;6.72;;;;;;;;;;4991162;28;20054;-67
2022/10/05 02:44:44;;;;;;;30.75;6.63;;;;;;;;;;4991977;28;20395;-69
2022/10/05 02:47:18;;;;;;;14.55;6.32;;;;;;;;;;4991202;28;20038;-69
2022/10/05 02:49:43;;;;;;;13.45;6.90;;;;;;;;;;4987492;28;20340;-69
2022/10/05 02:52:11;;;;;;;11.93;6.17;;;;;;;;;;4992399;28;20040;-69
2022/10/05 02:54:43;;;;;;;8.32;6.30;;;;;;;;;;4993012;28;20066;-70
2022/10/05 02:57:08;;;;;;;12.20;6.90;;;;;;;;;;4988248;28;20031;-68
2022/10/05 02:59:37;;;;;;;18.10;6.90;;;;;;;;;;4992238;28;20045;-69
2022/10/05 03:02:05;;;;;;;24.00;7.17;;;;;;;;;;5006396;28;20480;-68
2022/10/05 03:04:45;;;;;;;23.75;7.65;;;;;;;;;;4991906;28;20029;-69
2022/10/05 03:07:11;;;;;;;16.08;7.13;;;;;;;;;;4989503;28;20026;-68
2022/10/05 03:09:41;;;;;;;20.20;7.87;;;;;;;;;;4991852;28;20030;-69
2022/10/05 03:12:15;;;;;;;41.33;8.55;;;;;;;;;;4993864;28;20291;-68
2022/10/05 03:15:02;;;;;;;33.00;8.25;;;;;;;;;;4992533;28;20074;-69
2022/10/05 03:17:33;;;;;;;64.28;8.93;;;;;;;;;;4992225;28;20026;-68
2022/10/05 03:20:20;;;;;;;26.63;8.60;;;;;;;;;;4992943;28;20033;-69
2022/10/05 03:22:50;;;;;;;25.85;8.75;;;;;;;;;;4991469;28;20109;-69
2022/10/05 03:25:16;;;;;;;19.55;9.20;;;;;;;;;;4992367;28;20026;-69
2022/10/05 03:27:46;;;;;;;36.63;10.80;;;;;;;;;;4991431;28;20030;-68
2022/10/05 03:30:14;;;;;;;21.90;9.15;;;;;;;;;;4992469;28;20069;-69
2022/10/05 03:33:01;;;;;;;22.90;10.38;;;;;;;;;;4992328;28;20037;-69
2022/10/05 03:35:29;;;;;;;21.38;9.85;;;;;;;;;;4990631;28;20038;-68
2022/10/05 03:37:57;;;;;;;18.63;9.80;;;;;;;;;;4991369;28;20038;-69
2022/10/05 03:40:23;;;;;;;14.45;9.57;;;;;;;;;;4990994;28;20033;-68
2022/10/05 03:42:48;;;;;;;16.93;9.07;;;;;;;;;;4991172;28;20031;-66
2022/10/05 03:45:13;;;;;;;16.03;8.97;;;;;;;;;;4991087;28;20835;-69
2022/10/05 03:47:42;;;;;;;17.60;9.00;;;;;;;;;;4992600;28;20531;-69
2022/10/05 03:50:26;;;;;;;18.77;8.85;;;;;;;;;;4989838;28;20295;-69
2022/10/05 03:52:55;;;;;;;18.60;9.35;;;;;;;;;;4987613;28;20022;-69
2022/10/05 03:55:32;;;;;;;17.15;9.68;;;;;;;;;;4990018;28;20026;-68
2022/10/05 03:58:01;;;;;;;24.52;12.52;;;;;;;;;;4991072;28;20439;-68
2022/10/05 04:00:29;;;;;;;34.67;16.73;;;;;;;;;;4989736;28;20062;-69
2022/10/05 04:02:59;;;;;;;51.35;28.73;;;;;;;;;;4988940;28;20969;-68
2022/10/05 04:05:42;;;;;;;53.88;28.48;;;;;;;;;;4989427;28;20037;-68
2022/10/05 04:08:10;;;;;;;56.38;27.42;;;;;;;;;;4986442;28;20522;-68
2022/10/05 04:10:38;;;;;;;43.67;23.38;;;;;;;;;;4989982;28;20443;-68
2022/10/05 04:13:05;;;;;;;38.72;20.13;;;;;;;;;;4990477;28;20022;-66
2022/10/05 04:15:39;;;;;;;36.40;18.48;;;;;;;;;;4991197;28;20049;-68
2022/10/05 04:18:08;;;;;;;28.77;16.38;;;;;;;;;;4989218;28;20096;-67
2022/10/05 04:20:43;;;;;;;23.40;12.27;;;;;;;;;;4987050;28;20038;-68
2022/10/05 04:23:26;;;;;;;15.50;8.95;;;;;;;;;;4989833;28;20128;-67
2022/10/05 04:26:03;;;;;;;12.75;8.48;;;;;;;;;;4989284;28;20030;-68
2022/10/05 04:28:47;;;;;;;16.30;8.50;;;;;;;;;;4990302;28;20057;-68
2022/10/05 04:31:21;;;;;;;10.82;6.95;;;;;;;;;;4990797;28;20574;-69
2022/10/05 04:33:54;;;;;;;12.88;6.88;;;;;;;;;;4990280;28;20034;-68
2022/10/05 04:36:29;;;;;;;12.77;6.00;;;;;;;;;;4987991;28;20081;-68
2022/10/05 04:39:02;;;;;;;9.27;5.88;;;;;;;;;;4988791;28;20041;-68
2022/10/05 04:41:39;;;;;;;9.00;5.45;;;;;;;;;;4988006;28;20404;-68
2022/10/05 04:44:10;;;;;;;10.20;5.50;;;;;;;;;;4991700;28;20105;-69
2022/10/05 04:46:39;;;;;;;11.00;5.05;;;;;;;;;;4985756;28;20018;-69
2022/10/05 04:49:12;;;;;;;8.38;5.40;;;;;;;;;;4990555;28;20494;-67
2022/10/05 04:51:43;;;;;;;7.97;5.35;;;;;;;;;;4989650;28;20030;-66
2022/10/05 04:54:27;;;;;;;9.75;5.97;;;;;;;;;;4990584;28;20030;-69
2022/10/05 04:56:54;;;;;;;8.63;4.78;;;;;;;;;;4989413;28;20034;-68
2022/10/05 04:59:34;;;;;;;10.13;5.75;;;;;;;;;;4988954;28;20026;-66
2022/10/05 05:02:06;;;;;;;8.77;5.75;;;;;;;;;;4990751;28;20045;-68
2022/10/05 05:04:32;;;;;;;11.23;6.07;;;;;;;;;;4988853;28;20120;-70
2022/10/05 05:07:16;;;;;;;213.27;20.97;;;;;;;;;;4984468;28;20102;-67
2022/10/05 05:09:44;;;;;;;11.48;6.38;;;;;;;;;;4989479;28;20365;-67
2022/10/05 05:12:24;;;;;;;9.07;5.80;;;;;;;;;;5003501;28;20057;-68
2022/10/05 05:14:49;;;;;;;9.93;6.28;;;;;;;;;;4986794;28;20401;-68
2022/10/05 05:17:29;;;;;;;12.93;7.00;;;;;;;;;;4986208;28;20030;-70
2022/10/05 05:20:01;;;;;;;16.23;8.48;;;;;;;;;;4982908;28;20041;-69
2022/10/05 05:22:52;;;;;;;20.33;9.00;;;;;;;;;;4988402;28;20080;-69
2022/10/05 05:25:25;;;;;;;19.40;8.90;;;;;;;;;;4985113;28;20061;-69
2022/10/05 05:27:53;;;;;;;25.77;8.80;;;;;;;;;;4990841;28;20036;-71
2022/10/05 05:30:20;;;;;;;19.65;7.40;;;;;;;;;;4987752;28;20050;-69
2022/10/05 05:33:09;;;;;;;17.35;6.45;;;;;;;;;;4989960;28;20565;-69
2022/10/05 05:35:50;;;;;;;12.30;6.40;;;;;;;;;;4989047;28;20034;-70
2022/10/05 05:38:15;;;;;;;17.90;6.45;;;;;;;;;;4986265;28;20061;-69
2022/10/05 05:40:49;;;;;;;15.80;5.73;;;;;;;;;;5005356;28;20116;-69
2022/10/05 05:43:23;;;;;;;16.83;5.78;;;;;;;;;;4985541;28;20595;-69
2022/10/05 05:45:56;;;;;;;10.18;5.63;;;;;;;;;;4988713;28;20051;-69
2022/10/05 05:48:24;;;;;;;12.32;6.50;;;;;;;;;;4982711;28;20034;-70
2022/10/05 05:50:56;;;;;;;10.57;6.53;;;;;;;;;;4987109;28;20034;-69
2022/10/05 05:53:26;;;;;;;10.15;6.47;;;;;;;;;;4989789;28;20085;-69
2022/10/05 05:55:54;;;;;;;11.88;7.13;;;;;;;;;;4990748;28;20023;-71
2022/10/05 05:58:24;;;;;;;17.15;8.00;;;;;;;;;;4989077;28;20045;-71
2022/10/05 06:00:52;;;;;;;13.85;7.50;;;;;;;;;;4990498;28;20057;-71
2022/10/05 06:03:33;;;;;;;17.50;7.30;;;;;;;;;;4990398;28;20038;-71
2022/10/05 06:06:00;;;;;;;11.85;7.45;;;;;;;;;;4990231;28;20027;-71
2022/10/05 06:08:32;;;;;;;17.73;7.95;;;;;;;;;;4989835;28;20392;-72
2022/10/05 06:11:00;;;;;;;12.65;8.30;;;;;;;;;;4993332;28;20018;-72
2022/10/05 06:13:33;;;;;;;21.65;8.13;;;;;;;;;;4993218;28;20117;-71
2022/10/05 06:16:03;;;;;;;27.73;8.15;;;;;;;;;;4993718;28;20159;-71
2022/10/05 06:18:30;;;;;;;16.90;7.80;;;;;;;;;;4991260;28;21158;-72
2022/10/05 06:21:18;;;;;;;59.47;9.82;;;;;;;;;;4992709;28;20080;-71
2022/10/05 06:23:49;;;;;;;12.82;8.45;;;;;;;;;;4992849;28;20078;-72
2022/10/05 06:26:22;;;;;;;17.48;8.68;;;;;;;;;;4993460;28;20060;-71
2022/10/05 06:28:49;;;;;;;33.95;9.82;;;;;;;;;;5008691;28;20026;-72
2022/10/05 06:31:21;;;;;;;38.50;10.25;;;;;;;;;;4991774;28;20026;-72
2022/10/05 06:33:46;;;;;;;24.27;9.18;;;;;;;;;;4993909;28;20366;-72
2022/10/05 06:36:22;;;;;;;28.80;9.63;;;;;;;;;;4993123;28;20523;-71
2022/10/05 06:39:02;;;;;;;19.63;9.75;;;;;;;;;;4993571;28;20101;-72
2022/10/05 06:41:27;;;;;;;13.55;8.70;;;;;;;;;;4992884;28;20032;-72
2022/10/05 06:44:11;;;;;;;21.20;9.33;;;;;;;;;;4989919;28;20011;-71
2022/10/05 06:46:49;;;;;;;23.65;8.25;;;;;;;;;;4992569;28;20102;-71
2022/10/05 06:49:23;;;;;;;40.15;10.30;;;;;;;;;;5007856;28;20023;-71
2022/10/05 06:51:51;;;;;;;37.72;10.00;;;;;;;;;;4993630;28;20558;-72
2022/10/05 06:54:26;;;;;;;26.42;10.10;;;;;;;;;;4991377;28;20077;-71
2022/10/05 06:56:56;;;;;;;36.13;10.45;;;;;;;;;;4993002;28;20641;-72
2022/10/05 06:59:51;;;;;;;17.42;9.52;;;;;;;;;;4992906;28;20106;-71
2022/10/05 07:02:23;;;;;;;19.20;9.88;;;;;;;;;;4987802;28;20034;-72
2022/10/05 07:05:17;;;;;;;21.08;9.88;;;;;;;;;;4988484;28;20033;-71
2022/10/05 07:07:54;;;;;;;23.63;9.73;;;;;;;;;;4988262;28;20050;-71
2022/10/05 07:10:19;;;;;;;24.95;9.75;;;;;;;;;;4993097;28;20038;-71
2022/10/05 07:12:47;;;;;;;19.70;9.53;;;;;;;;;;4993976;28;20026;-71
2022/10/05 07:15:12;;;;;;;23.67;10.48;;;;;;;;;;4990649;28;20293;-71
2022/10/05 07:17:43;;;;;;;25.23;12.33;;;;;;;;;;4991232;28;20038;-71
2022/10/05 07:20:14;;;;;;;27.33;12.18;;;;;;;;;;4991979;28;20030;-72
2022/10/05 07:22:39;;;;;;;25.05;12.25;;;;;;;;;;4991733;28;20462;-72
2022/10/05 07:25:09;;;;;;;20.07;11.67;;;;;;;;;;4992589;28;20094;-71
2022/10/05 07:27:39;;;;;;;21.15;11.65;;;;;;;;;;4988573;28;20034;-72
2022/10/05 07:30:06;;;;;;;19.85;11.32;;;;;;;;;;4990367;28;20030;-71
2022/10/05 07:32:34;;;;;;;23.13;11.85;;;;;;;;;;5007167;28;20033;-72
2022/10/05 07:35:02;;;;;;;20.80;11.52;;;;;;;;;;4990931;28;20030;-72
2022/10/05 07:40:22;;;;;;;20.33;10.50;;;;;;;;;;4983235;28;20053;-72
2022/10/05 07:42:51;;;;;;;17.33;10.43;;;;;;;;;;4992838;28;20022;-71
2022/10/05 07:45:16;;;;;;;20.05;11.25;;;;;;;;;;4991846;28;20361;-71
2022/10/05 07:48:02;;;;;;;29.50;10.80;;;;;;;;;;4992153;28;20072;-71
2022/10/05 07:50:50;;;;;;;23.63;10.55;;;;;;;;;;4989270;28;20046;-72
2022/10/05 07:53:21;;;;;;;21.30;11.35;;;;;;;;;;4991098;28;20112;-71
2022/10/05 07:55:50;;;;;;;19.15;10.75;;;;;;;;;;4989041;28;20026;-70
2022/10/05 07:58:20;;;;;;;20.48;10.65;;;;;;;;;;4989613;28;20076;-71
2022/10/05 08:00:50;;;;;;;19.13;10.55;;;;;;;;;;4991349;28;20091;-71
2022/10/05 08:03:28;;;;;;;18.38;10.50;;;;;;;;;;4991236;28;20014;-71
2022/10/05 08:05:54;;;;;;;17.95;10.52;;;;;;;;;;5003327;28;20025;-70
2022/10/05 08:08:27;;;;;;;17.58;9.82;;;;;;;;;;4989714;28;20035;-71
2022/10/05 08:11:22;;;;;;;19.65;10.93;;;;;;;;;;4988415;28;20045;-71
2022/10/05 08:13:50;;;;;;;17.92;10.52;;;;;;;;;;4985344;28;20554;-70
2022/10/05 08:16:16;;;;;;;17.80;10.23;;;;;;;;;;4988146;28;20030;-71
2022/10/05 08:18:50;;;;;;;18.70;10.38;;;;;;;;;;4987017;28;20042;-71
2022/10/05 08:21:18;;;;;;;15.95;10.15;;;;;;;;;;5004316;28;20033;-71
2022/10/05 08:23:49;;;;;;;16.42;9.93;;;;;;;;;;4991081;28;20056;-71
2022/10/05 08:26:33;;;;;;;19.35;9.60;;;;;;;;;;4988388;28;20026;-71
2022/10/05 08:28:58;;;;;;;18.40;9.38;;;;;;;;;;5005299;28;20022;-71
2022/10/05 08:31:25;;;;;;;16.57;9.43;;;;;;;;;;4989841;28;20156;-71
2022/10/05 08:33:57;;;;;;;15.65;9.20;;;;;;;;;;4992179;28;20276;-70
2022/10/05 08:36:29;;;;;;;14.98;9.32;;;;;;;;;;4989176;28;20057;-70
2022/10/05 08:38:58;;;;;;;21.70;10.00;;;;;;;;;;4991784;28;20362;-70
2022/10/05 08:41:41;;;;;;;18.17;9.82;;;;;;;;;;4991635;28;20113;-70
2022/10/05 08:44:07;;;;;;;14.80;8.88;;;;;;;;;;4991447;28;20060;-70
2022/10/05 08:46:47;;;;;;;15.73;8.53;;;;;;;;;;4991742;28;20050;-69
2022/10/05 08:49:15;;;;;;;14.68;8.68;;;;;;;;;;4989717;28;20034;-69
2022/10/05 08:51:56;;;;;;;16.13;9.00;;;;;;;;;;4991496;28;20038;-71
2022/10/05 08:54:56;;;;;;;14.85;9.35;;;;;;;;;;4991439;28;20129;-70
2022/10/05 08:57:21;;;;;;;13.45;8.68;;;;;;;;;;4969827;28;20126;-70
2022/10/05 08:59:58;;;;;;;13.40;8.90;;;;;;;;;;4969171;28;20035;-70
2022/10/05 09:02:31;;;;;;;15.90;8.60;;;;;;;;;;4969725;28;20117;-70
2022/10/05 09:05:06;;;;;;;13.05;8.23;;;;;;;;;;4966598;28;20437;-71
2022/10/05 09:08:00;;;;;;;11.40;8.05;;;;;;;;;;4969444;28;20110;-71
2022/10/05 09:10:45;;;;;;;14.93;8.65;;;;;;;;;;4950606;28;20034;-70
2022/10/05 09:13:30;;;;;;;14.23;7.75;;;;;;;;;;4968304;28;20035;-71
2022/10/05 09:15:55;;;;;;;7.93;6.78;;;;;;;;;;4969801;28;20400;-72
2022/10/05 09:18:40;;;;;;;9.27;6.77;;;;;;;;;;4953591;28;20039;-72
2022/10/05 09:21:18;;;;;;;8.23;6.80;;;;;;;;;;4968406;28;20515;-72
2022/10/05 09:23:45;;;;;;;9.93;6.45;;;;;;;;;;4950969;28;20481;-71
2022/10/05 09:26:28;;;;;;;11.02;6.97;;;;;;;;;;4969529;28;20031;-72
2022/10/05 09:28:57;;;;;;;13.20;7.80;;;;;;;;;;4969017;28;20744;-72
2022/10/05 09:31:50;;;;;;;9.90;7.32;;;;;;;;;;4979402;28;20129;-73
2022/10/05 09:34:18;;;;;;;8.45;6.95;;;;;;;;;;4989217;28;20035;-71
2022/10/05 09:36:46;;;;;;;9.05;6.70;;;;;;;;;;4989785;28;20105;-73
2022/10/05 09:39:11;;;;;;;9.52;7.05;;;;;;;;;;4990161;28;20049;-70
2022/10/05 09:41:46;;;;;;;8.30;7.13;;;;;;;;;;4991116;28;20053;-72
2022/10/05 09:44:11;;;;;;;10.93;7.40;;;;;;;;;;4990446;28;20048;-67
2022/10/05 09:46:56;;;;;;;9.77;7.10;;;;;;;;;;4994854;28;20544;-66
2022/10/05 09:49:40;;;;;;;12.13;7.00;;;;;;;;;;4993878;28;20326;-70
2022/10/05 09:52:24;;;;;;;9.63;7.20;;;;;;;;;;4993735;28;20022;-72
2022/10/05 09:55:00;;;;;;;15.85;7.13;;;;;;;;;;4992390;28;20042;-71
2022/10/05 09:57:54;;;;;;;7.68;6.35;;;;;;;;;;4990493;28;20026;-71
2022/10/05 10:00:29;;;;;;;10.10;6.82;;;;;;;;;;4986885;28;20554;-72
2022/10/05 10:03:04;;;;;;;9.52;7.00;;;;;;;;;;4993903;28;20022;-72
2022/10/05 10:05:47;;;;;;;9.20;6.80;;;;;;;;;;4991939;28;20434;-72
2022/10/05 10:08:19;;;;;;;7.40;6.00;;;;;;;;;;4990801;28;20093;-71
2022/10/05 10:10:55;;;;;;;8.75;6.75;;;;;;;;;;4990310;28;20038;-71
2022/10/05 10:13:39;;;;;;;10.10;6.60;;;;;;;;;;4992258;28;20125;-72
2022/10/05 10:16:22;;;;;;;11.70;6.40;;;;;;;;;;4990699;28;20033;-73
2022/10/05 10:18:47;;;;;;;8.35;6.45;;;;;;;;;;4991116;28;20034;-71
2022/10/05 10:21:33;;;;;;;7.67;6.03;;;;;;;;;;4994194;28;20499;-71
2022/10/05 10:24:01;;;;;;;10.75;6.40;;;;;;;;;;4993389;28;20038;-71
2022/10/05 10:26:47;;;;;;;11.65;6.65;;;;;;;;;;4994443;28;20033;-72
2022/10/05 10:29:31;;;;;;;8.55;6.25;;;;;;;;;;4989977;28;20026;-72
2022/10/05 10:32:00;;;;;;;9.15;6.40;;;;;;;;;;5002663;28;20018;-70
2022/10/05 10:34:28;;;;;;;9.52;6.78;;;;;;;;;;4990811;28;20030;-71
2022/10/05 10:37:12;;;;;;;7.88;6.45;;;;;;;;;;4992069;28;20030;-71
2022/10/05 10:39:37;;;;;;;10.68;6.32;;;;;;;;;;4989796;28;20027;-73
2022/10/05 10:42:11;;;;;;;9.93;6.23;;;;;;;;;;4996051;28;20077;-72
2022/10/05 10:44:36;;;;;;;10.48;6.30;;;;;;;;;;4988511;28;20061;-71
2022/10/05 10:47:13;;;;;;;7.23;5.57;;;;;;;;;;5008433;28;20439;-71
2022/10/05 10:50:04;;;;;;;11.50;6.70;;;;;;;;;;4991102;28;20665;-72
2022/10/05 10:52:48;;;;;;;9.23;5.80;;;;;;;;;;4988988;28;20243;-71
2022/10/05 10:55:22;;;;;;;10.73;6.28;;;;;;;;;;4990120;28;20037;-71
2022/10/05 10:57:53;;;;;;;7.63;5.80;;;;;;;;;;4992533;28;20068;-71
2022/10/05 11:00:21;;;;;;;8.98;5.60;;;;;;;;;;4992966;28;20030;-73
2022/10/05 11:03:07;;;;;;;7.28;5.55;;;;;;;;;;4992116;28;20026;-73
2022/10/05 11:05:35;;;;;;;7.88;5.80;;;;;;;;;;4991941;28;20395;-72
2022/10/05 11:08:00;;;;;;;9.55;5.53;;;;;;;;;;4991965;28;20439;-73
2022/10/05 11:10:28;;;;;;;9.53;5.37;;;;;;;;;;4993205;28;20037;-70
2022/10/05 11:13:12;;;;;;;8.95;5.35;;;;;;;;;;4992717;28;20030;-71
2022/10/05 11:15:37;;;;;;;6.78;5.18;;;;;;;;;;4988149;28;20455;-71
2022/10/05 11:18:09;;;;;;;6.20;4.60;;;;;;;;;;5006455;28;20041;-71
2022/10/05 11:20:37;;;;;;;6.35;4.82;;;;;;;;;;4992787;28;20058;-71
2022/10/05 11:23:05;;;;;;;6.25;4.72;;;;;;;;;;4992371;28;20030;-71
2022/10/05 11:25:49;;;;;;;8.70;5.03;;;;;;;;;;4991531;28;20030;-71
2022/10/05 11:28:27;;;;;;;9.00;5.63;;;;;;;;;;5007337;28;20038;-67
2022/10/05 11:30:55;;;;;;;7.73;5.20;;;;;;;;;;4991847;28;20105;-66
2022/10/05 11:33:41;;;;;;;7.22;4.85;;;;;;;;;;4991410;28;20030;-68
2022/10/05 11:36:20;;;;;;;5.90;3.95;;;;;;;;;;4992272;28;20061;-68
2022/10/05 11:38:51;;;;;;;4.88;3.95;;;;;;;;;;4993050;28;20029;-72
2022/10/05 11:41:17;;;;;;;5.70;4.10;;;;;;;;;;4991807;28;20133;-73
2022/10/05 11:43:45;;;;;;;6.37;3.90;;;;;;;;;;4989764;28;20109;-72
2022/10/05 11:46:26;;;;;;;8.23;4.95;;;;;;;;;;4990695;28;20030;-72
2022/10/05 11:49:09;;;;;;;4.25;3.78;;;;;;;;;;4990674;28;20040;-72
2022/10/05 11:51:43;;;;;;;6.53;4.20;;;;;;;;;;4991207;28;20415;-73
2022/10/05 11:54:08;;;;;;;6.72;3.83;;;;;;;;;;4992129;28;20026;-73
2022/10/05 11:56:33;;;;;;;6.87;4.20;;;;;;;;;;4990611;28;20057;-72
2022/10/05 11:59:11;;;;;;;7.40;4.03;;;;;;;;;;4990634;28;20531;-71
2022/10/05 12:01:44;;;;;;;4.88;2.90;;;;;;;;;;4991535;28;20288;-72
2022/10/05 12:04:09;;;;;;;6.20;2.55;;;;;;;;;;4989036;28;20121;-69
2022/10/05 12:06:37;;;;;;;6.07;3.73;;;;;;;;;;4991242;28;20113;-71
2022/10/05 12:09:03;;;;;;;5.80;4.20;;;;;;;;;;4991190;28;20026;-69
2022/10/05 12:11:34;;;;;;;5.78;3.72;;;;;;;;;;4990807;28;20038;-72
2022/10/05 12:14:12;;;;;;;5.50;3.45;;;;;;;;;;4992113;28;20393;-71
2022/10/05 12:16:38;;;;;;;4.50;2.88;;;;;;;;;;4987912;28;20034;-72
2022/10/05 12:19:17;;;;;;;5.30;3.40;;;;;;;;;;5005447;28;20563;-72
2022/10/05 12:21:45;;;;;;;3.53;2.80;;;;;;;;;;4989978;28;20049;-73
2022/10/05 12:24:29;;;;;;;4.90;2.70;;;;;;;;;;4990717;28;20041;-72
2022/10/05 12:26:57;;;;;;;4.88;3.00;;;;;;;;;;4993544;28;20026;-72
2022/10/05 12:29:26;;;;;;;3.55;2.95;;;;;;;;;;5005223;28;20034;-72
2022/10/05 12:32:06;;;;;;;4.70;2.92;;;;;;;;;;4987477;28;20034;-72
2022/10/05 12:34:50;;;;;;;2.97;2.10;;;;;;;;;;4989209;28;20026;-72
2022/10/05 12:37:30;;;;;;;5.43;2.30;;;;;;;;;;4990865;28;20030;-72
2022/10/05 12:40:00;;;;;;;3.20;2.00;;;;;;;;;;4992926;28;20566;-72
2022/10/05 12:42:34;;;;;;;4.07;1.98;;;;;;;;;;4988223;28;20041;-72
2022/10/05 12:45:10;;;;;;;3.95;2.72;;;;;;;;;;4991176;28;20049;-71
2022/10/05 12:47:35;;;;;;;4.60;2.50;;;;;;;;;;4991556;28;20425;-72
2022/10/05 12:50:18;;;;;;;5.67;2.33;;;;;;;;;;4991918;28;20118;-71
2022/10/05 12:52:58;;;;;;;3.53;2.00;;;;;;;;;;4989026;28;20045;-72
2022/10/05 12:55:39;;;;;;;4.60;2.28;;;;;;;;;;4993923;28;20034;-70
2022/10/05 12:58:14;;;;;;;2.45;1.92;;;;;;;;;;4989251;28;20072;-72
2022/10/05 13:00:46;;;;;;;3.78;2.03;;;;;;;;;;4986994;28;20045;-72
2022/10/05 13:03:23;;;;;;;3.28;2.10;;;;;;;;;;4987410;28;20026;-72
2022/10/05 13:05:48;;;;;;;2.30;1.63;;;;;;;;;;4989197;28;20041;-72
2022/10/05 13:08:25;;;;;;;3.33;1.77;;;;;;;;;;4989350;28;20400;-72
2022/10/05 13:11:00;;;;;;;2.67;2.08;;;;;;;;;;4990662;28;20275;-72
2022/10/05 13:14:01;;;;;;;2.20;1.70;;;;;;;;;;4988304;28;20130;-71
2022/10/05 13:16:35;;;;;;;3.92;1.90;;;;;;;;;;4987651;28;20030;-72
2022/10/05 13:19:00;;;;;;;4.45;2.20;;;;;;;;;;4986743;28;20117;-72
2022/10/05 13:21:32;;;;;;;3.13;2.20;;;;;;;;;;4973473;28;20113;-72
2022/10/05 13:24:13;;;;;;;2.53;1.92;;;;;;;17.33;nan;101834.06;4991907;28;20544;-71
2022/10/05 13:26:43;;;;;;;4.70;2.60;;;;;;;17.36;nan;101827.47;4995856;28;20037;-72
2022/10/05 13:29:21;;;;;;;4.57;2.40;;;;;;;;;;4992891;28;20044;-71
2022/10/05 13:31:52;;;;;;;5.65;2.30;;;;;;;;;;4991344;28;20155;-72
2022/10/05 13:34:17;;;;;;;2.30;1.67;;;;;;;;;;4971566;28;20042;-72
2022/10/05 13:36:51;;;;;;;2.60;1.70;;;;;;;;;;4975887;28;20503;-71
2022/10/05 13:39:49;;;;;;;2.28;1.52;;;;;;;;;;4991000;28;20034;-71
2022/10/05 13:42:16;;;;;;;4.03;1.65;;;;;;;;;;4959828;28;20600;-72
2022/10/05 13:44:47;;;;;;;2.80;1.38;;;;;;;;;;4991907;28;20042;-72
2022/10/05 13:47:31;;;;;;;3.05;1.50;;;;;;;;;;4989348;28;20034;-71
2022/10/05 13:50:16;;;;;;;4.55;2.05;;;;;;;;;;4992644;28;20080;-71
2022/10/05 13:52:47;;;;;;;8.15;2.20;;;;;;;;;;4991611;28;20065;-71
2022/10/05 13:55:36;;;;;;;2.83;1.52;;;;;;;;;;4994239;28;20478;-72
2022/10/05 13:58:04;;;;;;;3.90;2.00;;;;;;;;;;4984371;28;20046;-71
2022/10/05 14:00:30;;;;;;;4.13;1.63;;;;;;;;;;4989763;28;20026;-70
2022/10/05 14:02:58;;;;;;;3.80;2.05;;;;;;;;;;4990163;28;20026;-69
2022/10/05 14:05:23;;;;;;;1.95;1.40;;;;;;;;;;4990822;28;20056;-71
2022/10/05 14:07:53;;;;;;;4.27;1.70;;;;;;;;;;4989597;28;20038;-72
2022/10/05 14:10:30;;;;;;;4.55;1.90;;;;;;;;;;4990369;28;20550;-72
2022/10/05 14:12:55;;;;;;;4.22;1.45;;;;;;;;;;4991091;28;20105;-72
2022/10/05 14:15:26;;;;;;;2.60;1.65;;;;;;;;;;4991345;28;20137;-72
2022/10/05 14:17:51;;;;;;;3.17;2.00;;;;;;;;;;4991531;28;20458;-72
2022/10/05 14:20:30;;;;;;;4.10;1.90;;;;;;;;;;4992703;28;20124;-71
2022/10/05 14:23:00;;;;;;;3.47;1.80;;;;;;;;;;5008544;28;20330;-72
2022/10/05 14:25:26;;;;;;;1.77;1.50;;;;;;;;;;4991531;28;20062;-70
2022/10/05 14:27:56;;;;;;;3.53;1.50;;;;;;;;;;4992982;28;20061;-72
2022/10/05 14:30:24;;;;;;;2.05;1.35;;;;;;;17.36;nan;101752.94;4991718;28;20030;-71
2022/10/05 14:32:58;;;;;;;2.33;1.55;;;;;;;;;;4992915;28;20093;-71
2022/10/05 14:35:24;;;;;;;2.70;1.48;;;;;;;;;;4992019;28;20022;-71
2022/10/05 14:37:52;;;;;;;3.15;1.80;;;;;;;;;;5001138;28;20457;-71
2022/10/05 14:40:20;;;;;;;2.95;1.63;;;;;;;;;;4991893;28;20038;-72
2022/10/05 14:42:46;;;;;;;2.00;1.42;;;;;;;;;;4992775;28;20369;-72
2022/10/05 14:45:16;;;;;;;2.40;1.40;;;;;;;;;;4992120;28;20037;-70
2022/10/05 14:47:47;;;;;;;2.75;1.38;;;;;;;;;;4993086;28;20311;-70
2022/10/05 14:50:16;;;;;;;1.80;1.48;;;;;;;;;;4991710;28;20026;-71
2022/10/05 14:52:58;;;;;;;3.10;1.40;;;;;;;;;;4990456;28;20072;-70
2022/10/05 14:55:37;;;;;;;2.20;1.50;;;;;;;;;;4990102;28;20447;-70
2022/10/05 14:58:11;;;;;;;3.53;1.20;;;;;;;;;;4990127;28;20035;-69
2022/10/05 15:00:45;;;;;;;1.50;1.27;;;;;;;;;;4994429;28;20062;-71
2022/10/05 15:03:15;;;;;;;3.60;1.85;;;;;;;;;;4985925;28;20187;-70
2022/10/05 15:05:48;;;;;;;3.05;1.20;;;;;;;16.95;nan;101790.16;4992358;28;20025;-70
2022/10/05 15:08:19;;;;;;;3.35;1.35;;;;;;;;;;4989761;28;20026;-71